sensor_id;sensor_type;location;lat;lon;timestamp;pressure;altitude;pressure_sealevel;temperature
79089;BMP280;68489;50.286;9.452;2023-04-24T00:02:20;96250.25;;;10.98
79089;BMP280;68489;50.286;9.452;2023-04-24T00:04:45;96244.84;;;10.93
79089;BMP280;68489;50.286;9.452;2023-04-24T00:07:11;96246.31;;;10.94
79089;BMP280;68489;50.286;9.452;2023-04-24T00:09:39;96244.41;;;10.94
79089;BMP280;68489;50.286;9.452;2023-04-24T00:12:04;96237.25;;;10.85
79089;BMP280;68489;50.286;9.452;2023-04-24T00:14:32;96237.72;;;10.84
79089;BMP280;68489;50.286;9.452;2023-04-24T00:16:58;96237.63;;;10.78
79089;BMP280;68489;50.286;9.452;2023-04-24T00:19:23;96228.31;;;10.83
79089;BMP280;68489;50.286;9.452;2023-04-24T00:21:48;96225.78;;;10.79
79089;BMP280;68489;50.286;9.452;2023-04-24T00:24:17;96227.00;;;10.78
79089;BMP280;68489;50.286;9.452;2023-04-24T00:26:43;96220.31;;;10.68
79089;BMP280;68489;50.286;9.452;2023-04-24T00:29:08;96222.34;;;10.73
79089;BMP280;68489;50.286;9.452;2023-04-24T00:31:33;96235.91;;;10.75
79089;BMP280;68489;50.286;9.452;2023-04-24T00:34:02;96229.59;;;10.73
79089;BMP280;68489;50.286;9.452;2023-04-24T00:36:28;96231.81;;;10.74
79089;BMP280;68489;50.286;9.452;2023-04-24T00:38:55;96228.38;;;10.74
79089;BMP280;68489;50.286;9.452;2023-04-24T00:41:21;96219.50;;;10.77
79089;BMP280;68489;50.286;9.452;2023-04-24T00:43:47;96220.66;;;10.76
79089;BMP280;68489;50.286;9.452;2023-04-24T00:46:12;96228.38;;;10.74
79089;BMP280;68489;50.286;9.452;2023-04-24T00:48:39;96204.66;;;10.70
79089;BMP280;68489;50.286;9.452;2023-04-24T00:51:04;96208.88;;;10.77
79089;BMP280;68489;50.286;9.452;2023-04-24T00:53:30;96203.00;;;10.73
79089;BMP280;68489;50.286;9.452;2023-04-24T00:55:57;96197.34;;;10.65
79089;BMP280;68489;50.286;9.452;2023-04-24T00:58:23;96189.53;;;10.61
79089;BMP280;68489;50.286;9.452;2023-04-24T01:00:49;96182.69;;;10.55
79089;BMP280;68489;50.286;9.452;2023-04-24T01:03:15;96189.03;;;10.57
79089;BMP280;68489;50.286;9.452;2023-04-24T01:05:41;96184.53;;;10.49
79089;BMP280;68489;50.286;9.452;2023-04-24T01:08:07;96194.53;;;10.39
79089;BMP280;68489;50.286;9.452;2023-04-24T01:10:33;96196.16;;;10.36
79089;BMP280;68489;50.286;9.452;2023-04-24T01:12:58;96188.13;;;10.31
79089;BMP280;68489;50.286;9.452;2023-04-24T01:15:24;96184.38;;;10.23
79089;BMP280;68489;50.286;9.452;2023-04-24T01:17:50;96179.69;;;10.18
79089;BMP280;68489;50.286;9.452;2023-04-24T01:20:15;96186.91;;;10.17
79089;BMP280;68489;50.286;9.452;2023-04-24T01:22:41;96198.56;;;10.20
79089;BMP280;68489;50.286;9.452;2023-04-24T01:25:07;96194.25;;;10.07
79089;BMP280;68489;50.286;9.452;2023-04-24T01:27:32;96197.38;;;10.06
79089;BMP280;68489;50.286;9.452;2023-04-24T01:29:59;96190.75;;;10.01
79089;BMP280;68489;50.286;9.452;2023-04-24T01:32:25;96190.22;;;9.97
79089;BMP280;68489;50.286;9.452;2023-04-24T01:34:50;96193.69;;;10.03
79089;BMP280;68489;50.286;9.452;2023-04-24T01:37:16;96195.16;;;10.04
79089;BMP280;68489;50.286;9.452;2023-04-24T01:39:43;96189.84;;;10.04
79089;BMP280;68489;50.286;9.452;2023-04-24T01:42:08;96205.72;;;10.13
79089;BMP280;68489;50.286;9.452;2023-04-24T01:44:34;96192.78;;;10.21
79089;BMP280;68489;50.286;9.452;2023-04-24T01:47:00;96192.78;;;10.21
79089;BMP280;68489;50.286;9.452;2023-04-24T01:49:26;96197.38;;;10.35
79089;BMP280;68489;50.286;9.452;2023-04-24T01:51:51;96206.63;;;10.25
79089;BMP280;68489;50.286;9.452;2023-04-24T01:54:17;96197.84;;;10.19
79089;BMP280;68489;50.286;9.452;2023-04-24T01:56:43;96199.00;;;10.18
79089;BMP280;68489;50.286;9.452;2023-04-24T01:59:12;96193.06;;;10.08
79089;BMP280;68489;50.286;9.452;2023-04-24T02:01:38;96204.63;;;10.05
79089;BMP280;68489;50.286;9.452;2023-04-24T02:04:04;96199.38;;;9.96
79089;BMP280;68489;50.286;9.452;2023-04-24T02:06:31;96196.72;;;9.96
79089;BMP280;68489;50.286;9.452;2023-04-24T02:09:00;96189.75;;;9.99
79089;BMP280;68489;50.286;9.452;2023-04-24T02:11:25;96190.59;;;9.90
79089;BMP280;68489;50.286;9.452;2023-04-24T02:13:52;96192.94;;;9.88
79089;BMP280;68489;50.286;9.452;2023-04-24T02:16:17;96185.53;;;9.92
79089;BMP280;68489;50.286;9.452;2023-04-24T02:18:43;96191.13;;;9.94
79089;BMP280;68489;50.286;9.452;2023-04-24T02:21:08;96185.06;;;9.94
79089;BMP280;68489;50.286;9.452;2023-04-24T02:23:33;96184.34;;;9.93
79089;BMP280;68489;50.286;9.452;2023-04-24T02:25:58;96185.06;;;9.94
79089;BMP280;68489;50.286;9.452;2023-04-24T02:28:24;96180.50;;;9.94
79089;BMP280;68489;50.286;9.452;2023-04-24T02:30:50;96186.56;;;9.95
79089;BMP280;68489;50.286;9.452;2023-04-24T02:33:16;96170.97;;;9.87
79089;BMP280;68489;50.286;9.452;2023-04-24T02:35:41;96173.72;;;9.93
79089;BMP280;68489;50.286;9.452;2023-04-24T02:38:06;96171.88;;;9.84
79089;BMP280;68489;50.286;9.452;2023-04-24T02:40:32;96176.66;;;9.80
79089;BMP280;68489;50.286;9.452;2023-04-24T02:42:57;96169.81;;;9.88
79089;BMP280;68489;50.286;9.452;2023-04-24T02:45:22;96165.84;;;9.84
79089;BMP280;68489;50.286;9.452;2023-04-24T02:47:48;96165.41;;;9.85
79089;BMP280;68489;50.286;9.452;2023-04-24T02:50:13;96161.63;;;9.92
79089;BMP280;68489;50.286;9.452;2023-04-24T02:52:38;96160.66;;;9.90
79089;BMP280;68489;50.286;9.452;2023-04-24T02:55:04;96157.53;;;9.91
79089;BMP280;68489;50.286;9.452;2023-04-24T02:57:30;96149.19;;;9.83
79089;BMP280;68489;50.286;9.452;2023-04-24T02:59:55;96155.66;;;9.82
79089;BMP280;68489;50.286;9.452;2023-04-24T03:02:20;96151.66;;;9.87
79089;BMP280;68489;50.286;9.452;2023-04-24T03:04:46;96152.31;;;9.82
79089;BMP280;68489;50.286;9.452;2023-04-24T03:07:12;96140.84;;;9.76
79089;BMP280;68489;50.286;9.452;2023-04-24T03:09:38;96153.31;;;9.84
79089;BMP280;68489;50.286;9.452;2023-04-24T03:12:03;96144.91;;;9.86
79089;BMP280;68489;50.286;9.452;2023-04-24T03:14:28;96144.16;;;9.85
79089;BMP280;68489;50.286;9.452;2023-04-24T03:16:56;96141.69;;;9.82
79089;BMP280;68489;50.286;9.452;2023-04-24T03:19:21;96147.34;;;9.75
79089;BMP280;68489;50.286;9.452;2023-04-24T03:21:47;96143.50;;;9.76
79089;BMP280;68489;50.286;9.452;2023-04-24T03:24:12;96139.56;;;9.71
79089;BMP280;68489;50.286;9.452;2023-04-24T03:26:37;96140.13;;;9.75
79089;BMP280;68489;50.286;9.452;2023-04-24T03:29:02;96145.53;;;9.81
79089;BMP280;68489;50.286;9.452;2023-04-24T03:31:28;96137.84;;;9.83
79089;BMP280;68489;50.286;9.452;2023-04-24T03:33:53;96142.88;;;9.81
79089;BMP280;68489;50.286;9.452;2023-04-24T03:36:18;96144.97;;;9.92
79089;BMP280;68489;50.286;9.452;2023-04-24T03:38:44;96151.13;;;9.98
79089;BMP280;68489;50.286;9.452;2023-04-24T03:41:10;96149.38;;;9.95
79089;BMP280;68489;50.286;9.452;2023-04-24T03:43:35;96150.19;;;10.01
79089;BMP280;68489;50.286;9.452;2023-04-24T03:46:01;96155.06;;;10.02
79089;BMP280;68489;50.286;9.452;2023-04-24T03:48:28;96160.38;;;10.02
79089;BMP280;68489;50.286;9.452;2023-04-24T03:50:53;96162.28;;;10.02
79089;BMP280;68489;50.286;9.452;2023-04-24T03:53:18;96158.06;;;10.10
79089;BMP280;68489;50.286;9.452;2023-04-24T03:55:44;96163.75;;;10.03
79089;BMP280;68489;50.286;9.452;2023-04-24T03:58:10;96165.22;;;10.04
79089;BMP280;68489;50.286;9.452;2023-04-24T04:00:36;96155.97;;;9.99
79089;BMP280;68489;50.286;9.452;2023-04-24T04:03:02;96167.16;;;10.03
79089;BMP280;68489;50.286;9.452;2023-04-24T04:05:27;96165.22;;;10.04
79089;BMP280;68489;50.286;9.452;2023-04-24T04:07:54;96167.22;;;10.09
79089;BMP280;68489;50.286;9.452;2023-04-24T04:10:19;96160.38;;;10.02
79089;BMP280;68489;50.286;9.452;2023-04-24T04:12:45;96169.06;;;10.03
79089;BMP280;68489;50.286;9.452;2023-04-24T04:15:10;96164.66;;;10.00
79089;BMP280;68489;50.286;9.452;2023-04-24T04:17:35;96167.50;;;9.96
79089;BMP280;68489;50.286;9.452;2023-04-24T04:20:03;96168.91;;;10.06
79089;BMP280;68489;50.286;9.452;2023-04-24T04:22:33;96161.75;;;10.12
79089;BMP280;68489;50.286;9.452;2023-04-24T04:24:58;96163.38;;;10.10
79089;BMP280;68489;50.286;9.452;2023-04-24T04:27:24;96167.50;;;10.11
79089;BMP280;68489;50.286;9.452;2023-04-24T04:29:49;96169.16;;;10.08
79089;BMP280;68489;50.286;9.452;2023-04-24T04:32:15;96182.25;;;10.12
79089;BMP280;68489;50.286;9.452;2023-04-24T04:34:41;96187.13;;;10.13
79089;BMP280;68489;50.286;9.452;2023-04-24T04:37:07;96188.75;;;10.11
79089;BMP280;68489;50.286;9.452;2023-04-24T04:39:32;96192.69;;;10.16
79089;BMP280;68489;50.286;9.452;2023-04-24T04:41:57;96183.88;;;10.09
79089;BMP280;68489;50.286;9.452;2023-04-24T04:44:23;96189.59;;;10.02
79089;BMP280;68489;50.286;9.452;2023-04-24T04:46:49;96195.06;;;9.99
79089;BMP280;68489;50.286;9.452;2023-04-24T04:49:15;96193.50;;;9.92
79089;BMP280;68489;50.286;9.452;2023-04-24T04:51:41;96191.94;;;9.85
79089;BMP280;68489;50.286;9.452;2023-04-24T04:54:08;96199.34;;;9.81
79089;BMP280;68489;50.286;9.452;2023-04-24T04:56:33;96206.59;;;9.81
79089;BMP280;68489;50.286;9.452;2023-04-24T04:58:58;96202.75;;;9.82
79089;BMP280;68489;50.286;9.452;2023-04-24T05:01:24;96206.09;;;9.82
79089;BMP280;68489;50.286;9.452;2023-04-24T05:03:50;96213.09;;;9.80
79089;BMP280;68489;50.286;9.452;2023-04-24T05:06:16;96210.88;;;9.78
79089;BMP280;68489;50.286;9.452;2023-04-24T05:08:41;96209.84;;;9.76
79089;BMP280;68489;50.286;9.452;2023-04-24T05:11:06;96211.19;;;9.80
79089;BMP280;68489;50.286;9.452;2023-04-24T05:13:31;96209.69;;;9.79
79089;BMP280;68489;50.286;9.452;2023-04-24T05:15:57;96228.00;;;9.77
79089;BMP280;68489;50.286;9.452;2023-04-24T05:18:23;96222.84;;;9.74
79089;BMP280;68489;50.286;9.452;2023-04-24T05:20:48;96229.28;;;9.82
79089;BMP280;68489;50.286;9.452;2023-04-24T05:23:13;96227.84;;;9.81
79089;BMP280;68489;50.286;9.452;2023-04-24T05:25:39;96231.28;;;9.72
79089;BMP280;68489;50.286;9.452;2023-04-24T05:28:05;96234.19;;;9.74
79089;BMP280;68489;50.286;9.452;2023-04-24T05:30:30;96231.44;;;9.69
79089;BMP280;68489;50.286;9.452;2023-04-24T05:32:56;96246.50;;;9.72
79089;BMP280;68489;50.286;9.452;2023-04-24T05:35:21;96246.63;;;9.68
79089;BMP280;68489;50.286;9.452;2023-04-24T05:37:46;96248.13;;;9.69
79089;BMP280;68489;50.286;9.452;2023-04-24T05:40:12;96254.66;;;9.59
79089;BMP280;68489;50.286;9.452;2023-04-24T05:42:37;96259.88;;;9.53
79089;BMP280;68489;50.286;9.452;2023-04-24T05:45:03;96249.78;;;9.57
79089;BMP280;68489;50.286;9.452;2023-04-24T05:47:28;96261.81;;;9.68
79089;BMP280;68489;50.286;9.452;2023-04-24T05:49:54;96273.63;;;9.91
79089;BMP280;68489;50.286;9.452;2023-04-24T05:52:19;96268.97;;;10.00
79089;BMP280;68489;50.286;9.452;2023-04-24T05:54:44;96266.06;;;10.13
79089;BMP280;68489;50.286;9.452;2023-04-24T05:57:09;96254.63;;;10.22
79089;BMP280;68489;50.286;9.452;2023-04-24T05:59:36;96264.59;;;10.27
79089;BMP280;68489;50.286;9.452;2023-04-24T06:02:02;96267.81;;;10.16
79089;BMP280;68489;50.286;9.452;2023-04-24T06:04:27;96264.59;;;10.12
79089;BMP280;68489;50.286;9.452;2023-04-24T06:06:53;96270.28;;;10.05
79089;BMP280;68489;50.286;9.452;2023-04-24T06:09:24;96277.03;;;10.06
79089;BMP280;68489;50.286;9.452;2023-04-24T06:11:50;96276.69;;;10.13
79089;BMP280;68489;50.286;9.452;2023-04-24T06:14:19;96261.84;;;10.21
79089;BMP280;68489;50.286;9.452;2023-04-24T06:16:45;96279.63;;;10.45
79089;BMP280;68489;50.286;9.452;2023-04-24T06:19:10;96273.88;;;10.61
79089;BMP280;68489;50.286;9.452;2023-04-24T06:21:35;96284.41;;;10.70
79089;BMP280;68489;50.286;9.452;2023-04-24T06:24:00;96293.34;;;10.87
79089;BMP280;68489;50.286;9.452;2023-04-24T06:26:26;96292.25;;;10.94
79089;BMP280;68489;50.286;9.452;2023-04-24T06:28:52;96305.38;;;10.98
79089;BMP280;68489;50.286;9.452;2023-04-24T06:31:19;96300.69;;;11.07
79089;BMP280;68489;50.286;9.452;2023-04-24T06:33:44;96299.72;;;11.25
79089;BMP280;68489;50.286;9.452;2023-04-24T06:36:09;96300.00;;;11.27
79089;BMP280;68489;50.286;9.452;2023-04-24T06:38:35;96303.50;;;11.19
79089;BMP280;68489;50.286;9.452;2023-04-24T06:41:00;96317.34;;;11.23
79089;BMP280;68489;50.286;9.452;2023-04-24T06:43:26;96304.94;;;10.99
79089;BMP280;68489;50.286;9.452;2023-04-24T06:45:51;96309.41;;;10.78
79089;BMP280;68489;50.286;9.452;2023-04-24T06:48:16;96310.47;;;10.66
79089;BMP280;68489;50.286;9.452;2023-04-24T06:50:41;96307.13;;;10.56
79089;BMP280;68489;50.286;9.452;2023-04-24T06:53:07;96311.91;;;10.52
79089;BMP280;68489;50.286;9.452;2023-04-24T06:55:32;96302.09;;;10.58
79089;BMP280;68489;50.286;9.452;2023-04-24T06:57:58;96310.09;;;10.58
79089;BMP280;68489;50.286;9.452;2023-04-24T07:00:23;96299.97;;;10.62
79089;BMP280;68489;50.286;9.452;2023-04-24T07:02:49;96316.50;;;10.67
79089;BMP280;68489;50.286;9.452;2023-04-24T07:05:14;96324.28;;;10.70
79089;BMP280;68489;50.286;9.452;2023-04-24T07:07:40;96307.22;;;10.77
79089;BMP280;68489;50.286;9.452;2023-04-24T07:10:06;96312.63;;;10.97
79089;BMP280;68489;50.286;9.452;2023-04-24T07:12:31;96313.41;;;11.18
79089;BMP280;68489;50.286;9.452;2023-04-24T07:14:57;96315.97;;;11.12
79089;BMP280;68489;50.286;9.452;2023-04-24T07:17:22;96315.53;;;11.14
79089;BMP280;68489;50.286;9.452;2023-04-24T07:19:47;96320.03;;;10.93
79089;BMP280;68489;50.286;9.452;2023-04-24T07:22:13;96320.03;;;11.08
79089;BMP280;68489;50.286;9.452;2023-04-24T07:24:43;96328.06;;;11.28
79089;BMP280;68489;50.286;9.452;2023-04-24T07:27:08;96331.56;;;11.20
79089;BMP280;68489;50.286;9.452;2023-04-24T07:29:33;96325.97;;;11.18
79089;BMP280;68489;50.286;9.452;2023-04-24T07:31:58;96326.19;;;11.14
79089;BMP280;68489;50.286;9.452;2023-04-24T07:34:24;96325.63;;;11.10
79089;BMP280;68489;50.286;9.452;2023-04-24T07:36:49;96334.44;;;10.86
79089;BMP280;68489;50.286;9.452;2023-04-24T07:39:15;96333.72;;;10.86
79089;BMP280;68489;50.286;9.452;2023-04-24T07:41:40;96327.75;;;10.76
79089;BMP280;68489;50.286;9.452;2023-04-24T07:44:05;96326.09;;;10.79
79089;BMP280;68489;50.286;9.452;2023-04-24T07:46:30;96336.81;;;10.84
79089;BMP280;68489;50.286;9.452;2023-04-24T07:48:56;96338.13;;;10.89
79089;BMP280;68489;50.286;9.452;2023-04-24T07:51:21;96332.50;;;11.02
79089;BMP280;68489;50.286;9.452;2023-04-24T07:53:47;96339.53;;;11.20
79089;BMP280;68489;50.286;9.452;2023-04-24T07:56:12;96339.53;;;11.20
79089;BMP280;68489;50.286;9.452;2023-04-24T07:58:37;96345.59;;;11.35
79089;BMP280;68489;50.286;9.452;2023-04-24T08:01:02;96333.63;;;11.45
79089;BMP280;68489;50.286;9.452;2023-04-24T08:03:28;96338.31;;;11.71
79089;BMP280;68489;50.286;9.452;2023-04-24T08:05:53;96340.50;;;11.72
79089;BMP280;68489;50.286;9.452;2023-04-24T08:08:21;96339.69;;;11.86
79089;BMP280;68489;50.286;9.452;2023-04-24T08:10:47;96343.03;;;12.02
79089;BMP280;68489;50.286;9.452;2023-04-24T08:13:12;96340.69;;;12.09
79089;BMP280;68489;50.286;9.452;2023-04-24T08:15:37;96350.47;;;11.98
79089;BMP280;68489;50.286;9.452;2023-04-24T08:18:03;96352.13;;;11.95
79089;BMP280;68489;50.286;9.452;2023-04-24T08:20:28;96345.28;;;11.88
79089;BMP280;68489;50.286;9.452;2023-04-24T08:22:54;96344.88;;;12.16
79089;BMP280;68489;50.286;9.452;2023-04-24T08:25:20;96351.13;;;12.59
79089;BMP280;68489;50.286;9.452;2023-04-24T08:27:45;96338.44;;;12.80
79089;BMP280;68489;50.286;9.452;2023-04-24T08:30:11;96350.75;;;12.46
79089;BMP280;68489;50.286;9.452;2023-04-24T08:32:36;96350.00;;;12.20
79089;BMP280;68489;50.286;9.452;2023-04-24T08:35:02;96349.22;;;11.93
79089;BMP280;68489;50.286;9.452;2023-04-24T08:37:28;96347.81;;;11.77
79089;BMP280;68489;50.286;9.452;2023-04-24T08:39:53;96364.34;;;12.28
79089;BMP280;68489;50.286;9.452;2023-04-24T08:42:20;96350.13;;;12.88
79089;BMP280;68489;50.286;9.452;2023-04-24T08:44:46;96361.00;;;13.59
79089;BMP280;68489;50.286;9.452;2023-04-24T08:47:13;96351.31;;;14.55
79089;BMP280;68489;50.286;9.452;2023-04-24T08:49:39;96360.78;;;15.07
79089;BMP280;68489;50.286;9.452;2023-04-24T08:52:07;96352.34;;;15.61
79089;BMP280;68489;50.286;9.452;2023-04-24T08:54:35;96363.88;;;15.97
79089;BMP280;68489;50.286;9.452;2023-04-24T08:57:02;96368.22;;;16.06
79089;BMP280;68489;50.286;9.452;2023-04-24T08:59:28;96355.28;;;16.04
79089;BMP280;68489;50.286;9.452;2023-04-24T09:01:55;96356.03;;;15.52
79089;BMP280;68489;50.286;9.452;2023-04-24T09:04:22;96366.38;;;14.97
79089;BMP280;68489;50.286;9.452;2023-04-24T09:06:49;96374.88;;;14.40
79089;BMP280;68489;50.286;9.452;2023-04-24T09:09:16;96371.59;;;14.02
79089;BMP280;68489;50.286;9.452;2023-04-24T09:11:42;96370.31;;;13.75
79089;BMP280;68489;50.286;9.452;2023-04-24T09:14:09;96373.56;;;14.02
79089;BMP280;68489;50.286;9.452;2023-04-24T09:16:35;96376.53;;;14.26
79089;BMP280;68489;50.286;9.452;2023-04-24T09:19:00;96374.81;;;14.06
79089;BMP280;68489;50.286;9.452;2023-04-24T09:21:31;96365.19;;;13.72
79089;BMP280;68489;50.286;9.452;2023-04-24T09:24:02;96374.22;;;13.80
79089;BMP280;68489;50.286;9.452;2023-04-24T09:26:32;96380.97;;;15.24
79089;BMP280;68489;50.286;9.452;2023-04-24T09:28:58;96391.16;;;16.42
79089;BMP280;68489;50.286;9.452;2023-04-24T09:31:26;96393.25;;;17.15
79089;BMP280;68489;50.286;9.452;2023-04-24T09:34:00;96388.56;;;17.64
79089;BMP280;68489;50.286;9.452;2023-04-24T09:36:30;96383.38;;;17.85
79089;BMP280;68489;50.286;9.452;2023-04-24T09:38:59;96396.91;;;17.36
79089;BMP280;68489;50.286;9.452;2023-04-24T09:41:25;96390.84;;;16.16
79089;BMP280;68489;50.286;9.452;2023-04-24T09:43:53;96395.19;;;15.66
79089;BMP280;68489;50.286;9.452;2023-04-24T09:46:19;96393.38;;;14.83
79089;BMP280;68489;50.286;9.452;2023-04-24T09:48:44;96399.09;;;14.08
79089;BMP280;68489;50.286;9.452;2023-04-24T09:51:10;96395.41;;;13.46
79089;BMP280;68489;50.286;9.452;2023-04-24T09:53:36;96410.06;;;13.25
79089;BMP280;68489;50.286;9.452;2023-04-24T09:56:05;96411.38;;;12.77
79089;BMP280;68489;50.286;9.452;2023-04-24T09:58:31;96421.38;;;12.36
79089;BMP280;68489;50.286;9.452;2023-04-24T10:00:57;96421.69;;;12.18
79089;BMP280;68489;50.286;9.452;2023-04-24T10:03:25;96427.88;;;11.88
79089;BMP280;68489;50.286;9.452;2023-04-24T10:05:52;96426.91;;;11.71
79089;BMP280;68489;50.286;9.452;2023-04-24T10:08:18;96421.44;;;11.60
79089;BMP280;68489;50.286;9.452;2023-04-24T10:10:46;96422.91;;;11.46
79089;BMP280;68489;50.286;9.452;2023-04-24T10:13:13;96418.81;;;11.30
79089;BMP280;68489;50.286;9.452;2023-04-24T10:15:41;96424.59;;;11.14
79089;BMP280;68489;50.286;9.452;2023-04-24T10:18:07;96424.41;;;11.03
79089;BMP280;68489;50.286;9.452;2023-04-24T10:20:35;96428.16;;;10.81
79089;BMP280;68489;50.286;9.452;2023-04-24T10:23:00;96440.50;;;10.84
79089;BMP280;68489;50.286;9.452;2023-04-24T10:25:30;96445.22;;;10.90
79089;BMP280;68489;50.286;9.452;2023-04-24T10:27:57;96436.06;;;11.05
79089;BMP280;68489;50.286;9.452;2023-04-24T10:30:26;96441.75;;;11.28
79089;BMP280;68489;50.286;9.452;2023-04-24T10:32:51;96440.81;;;11.46
79089;BMP280;68489;50.286;9.452;2023-04-24T10:35:17;96447.56;;;11.61
79089;BMP280;68489;50.286;9.452;2023-04-24T10:37:50;96446.72;;;11.70
79089;BMP280;68489;50.286;9.452;2023-04-24T10:40:19;96448.19;;;11.71
79089;BMP280;68489;50.286;9.452;2023-04-24T10:42:51;96436.91;;;11.76
79089;BMP280;68489;50.286;9.452;2023-04-24T10:45:19;96464.63;;;11.70
79089;BMP280;68489;50.286;9.452;2023-04-24T10:48:02;96451.31;;;11.70
79089;BMP280;68489;50.286;9.452;2023-04-24T10:50:29;96461.06;;;11.73
79089;BMP280;68489;50.286;9.452;2023-04-24T10:53:06;96456.44;;;11.73
79089;BMP280;68489;50.286;9.452;2023-04-24T10:55:46;96461.94;;;12.20
79089;BMP280;68489;50.286;9.452;2023-04-24T10:58:12;96468.13;;;12.78
79089;BMP280;68489;50.286;9.452;2023-04-24T11:00:39;96457.75;;;13.11
79089;BMP280;68489;50.286;9.452;2023-04-24T11:03:23;96468.78;;;13.56
79089;BMP280;68489;50.286;9.452;2023-04-24T11:05:55;96469.38;;;13.72
79089;BMP280;68489;50.286;9.452;2023-04-24T11:08:27;96469.44;;;13.46
79089;BMP280;68489;50.286;9.452;2023-04-24T11:10:59;96474.41;;;13.27
79089;BMP280;68489;50.286;9.452;2023-04-24T11:13:26;96469.63;;;13.36
79089;BMP280;68489;50.286;9.452;2023-04-24T11:18:41;96473.94;;;13.02
79089;BMP280;68489;50.286;9.452;2023-04-24T11:21:12;96477.63;;;12.79
79089;BMP280;68489;50.286;9.452;2023-04-24T11:23:37;96487.03;;;12.33
79089;BMP280;68489;50.286;9.452;2023-04-24T11:26:22;96481.13;;;11.88
79089;BMP280;68489;50.286;9.452;2023-04-24T11:28:50;96498.53;;;11.39
79089;BMP280;68489;50.286;9.452;2023-04-24T11:31:38;96496.69;;;11.16
79089;BMP280;68489;50.286;9.452;2023-04-24T11:34:12;96505.41;;;11.02
79089;BMP280;68489;50.286;9.452;2023-04-24T11:36:39;96500.63;;;11.06
79089;BMP280;68489;50.286;9.452;2023-04-24T11:39:05;96506.34;;;11.13
79089;BMP280;68489;50.286;9.452;2023-04-24T11:41:31;96508.63;;;11.21
79089;BMP280;68489;50.286;9.452;2023-04-24T11:43:57;96527.72;;;11.04
79089;BMP280;68489;50.286;9.452;2023-04-24T11:46:23;96519.81;;;11.10
79089;BMP280;68489;50.286;9.452;2023-04-24T11:48:48;96513.50;;;11.22
79089;BMP280;68489;50.286;9.452;2023-04-24T11:51:14;96522.00;;;11.85
79089;BMP280;68489;50.286;9.452;2023-04-24T11:53:39;96516.81;;;13.51
79089;BMP280;68489;50.286;9.452;2023-04-24T11:56:04;96509.91;;;16.43
79089;BMP280;68489;50.286;9.452;2023-04-24T11:58:38;96505.44;;;18.58
79089;BMP280;68489;50.286;9.452;2023-04-24T12:01:04;96507.47;;;20.77
79089;BMP280;68489;50.286;9.452;2023-04-24T12:03:30;96503.78;;;21.73
79089;BMP280;68489;50.286;9.452;2023-04-24T12:06:05;96525.63;;;22.26
79089;BMP280;68489;50.286;9.452;2023-04-24T12:08:33;96505.41;;;21.40
79089;BMP280;68489;50.286;9.452;2023-04-24T12:11:00;96512.16;;;21.54
79089;BMP280;68489;50.286;9.452;2023-04-24T12:13:25;96517.06;;;22.07
79089;BMP280;68489;50.286;9.452;2023-04-24T12:15:51;96513.09;;;21.64
79089;BMP280;68489;50.286;9.452;2023-04-24T12:18:16;96516.91;;;21.12
79089;BMP280;68489;50.286;9.452;2023-04-24T12:20:42;96515.75;;;19.63
79089;BMP280;68489;50.286;9.452;2023-04-24T12:23:07;96532.50;;;18.09
79089;BMP280;68489;50.286;9.452;2023-04-24T12:25:32;96537.66;;;16.62
79089;BMP280;68489;50.286;9.452;2023-04-24T12:30:30;96541.63;;;15.19
79089;BMP280;68489;50.286;9.452;2023-04-24T12:32:58;96552.06;;;14.35
79089;BMP280;68489;50.286;9.452;2023-04-24T12:35:24;96556.69;;;12.61
79089;BMP280;68489;50.286;9.452;2023-04-24T12:37:50;96542.34;;;11.53
79089;BMP280;68489;50.286;9.452;2023-04-24T12:40:17;96542.44;;;10.91
79089;BMP280;68489;50.286;9.452;2023-04-24T12:45:09;96543.75;;;10.47
79089;BMP280;68489;50.286;9.452;2023-04-24T12:47:34;96538.03;;;10.40
79089;BMP280;68489;50.286;9.452;2023-04-24T12:50:00;96544.13;;;10.31
79089;BMP280;68489;50.286;9.452;2023-04-24T12:52:27;96543.28;;;10.25
79089;BMP280;68489;50.286;9.452;2023-04-24T12:54:54;96550.38;;;10.19
79089;BMP280;68489;50.286;9.452;2023-04-24T12:57:20;96558.53;;;10.06
79089;BMP280;68489;50.286;9.452;2023-04-24T12:59:45;96567.66;;;10.14
79089;BMP280;68489;50.286;9.452;2023-04-24T13:02:11;96553.34;;;10.11
79089;BMP280;68489;50.286;9.452;2023-04-24T13:04:36;96547.63;;;10.37
79089;BMP280;68489;50.286;9.452;2023-04-24T13:07:02;96556.41;;;10.52
79089;BMP280;68489;50.286;9.452;2023-04-24T13:09:27;96561.56;;;10.80
79089;BMP280;68489;50.286;9.452;2023-04-24T13:11:52;96558.03;;;11.51
79089;BMP280;68489;50.286;9.452;2023-04-24T13:14:18;96563.69;;;11.88
79089;BMP280;68489;50.286;9.452;2023-04-24T13:16:43;96561.78;;;11.89
79089;BMP280;68489;50.286;9.452;2023-04-24T13:19:08;96563.78;;;11.94
79089;BMP280;68489;50.286;9.452;2023-04-24T13:21:33;96560.84;;;11.77
79089;BMP280;68489;50.286;9.452;2023-04-24T13:23:59;96552.88;;;11.62
79089;BMP280;68489;50.286;9.452;2023-04-24T13:26:24;96554.63;;;11.36
79089;BMP280;68489;50.286;9.452;2023-04-24T13:28:50;96559.44;;;11.08
79089;BMP280;68489;50.286;9.452;2023-04-24T13:31:15;96547.97;;;10.78
79089;BMP280;68489;50.286;9.452;2023-04-24T13:33:41;96553.59;;;10.56
79089;BMP280;68489;50.286;9.452;2023-04-24T13:36:06;96552.53;;;10.29
79089;BMP280;68489;50.286;9.452;2023-04-24T13:38:31;96554.53;;;10.10
79089;BMP280;68489;50.286;9.452;2023-04-24T13:40:57;96554.75;;;9.98
79089;BMP280;68489;50.286;9.452;2023-04-24T13:43:22;96571.91;;;9.78
79089;BMP280;68489;50.286;9.452;2023-04-24T13:45:47;96601.56;;;9.40
79089;BMP280;68489;50.286;9.452;2023-04-24T13:48:13;96602.81;;;8.80
79089;BMP280;68489;50.286;9.452;2023-04-24T13:50:41;96608.31;;;8.46
79089;BMP280;68489;50.286;9.452;2023-04-24T13:53:06;96607.03;;;8.28
79089;BMP280;68489;50.286;9.452;2023-04-24T13:55:31;96611.50;;;8.09
79089;BMP280;68489;50.286;9.452;2023-04-24T13:57:57;96611.19;;;8.07
79089;BMP280;68489;50.286;9.452;2023-04-24T14:00:22;96613.66;;;8.02
79089;BMP280;68489;50.286;9.452;2023-04-24T14:02:47;96612.94;;;8.01
79089;BMP280;68489;50.286;9.452;2023-04-24T14:05:13;96615.91;;;8.03
79089;BMP280;68489;50.286;9.452;2023-04-24T14:07:40;96620.16;;;8.01
79089;BMP280;68489;50.286;9.452;2023-04-24T14:10:06;96614.88;;;8.10
79089;BMP280;68489;50.286;9.452;2023-04-24T14:12:31;96609.91;;;8.12
79089;BMP280;68489;50.286;9.452;2023-04-24T14:14:56;96610.81;;;8.18